Time;durP1;ratioP1;P1;durP2;ratioP2;P2;SDS_P1;SDS_P2;PMS_P1;PMS_P2;Temp;Humidity;BMP_temperature;BMP_pressure;BME280_temperature;BME280_humidity;BME280_pressure;Samples;Min_cycle;Max_cycle;Signal;HPM_P1;HPM_P2
2021/03/27 00:00:16;;;;;;;26.70;24.60;;;;;;;;;;5034493;28;20481;-73
2021/03/27 00:02:46;;;;;;;27.80;26.00;;;;;;;;;;5035670;28;20436;-73
2021/03/27 00:05:16;;;;;;;27.63;25.80;;;;;;;;;;5036638;28;20439;-73
2021/03/27 00:07:51;;;;;;;26.93;25.13;;;;;;;;;;5034171;28;20414;-73
2021/03/27 00:10:21;;;;;;;27.57;25.50;;;;;;;;;;5035689;28;20421;-74
2021/03/27 00:12:49;;;;;;;27.60;25.70;;;;;;;;;;5035102;28;20538;-73
2021/03/27 00:15:37;;;;;;;26.10;24.33;;;;;;;;;;5037684;28;20455;-73
2021/03/27 00:18:11;;;;;;;27.13;25.20;;;;;;;;;;5038530;28;20547;-73
2021/03/27 00:20:41;;;;;;;26.37;24.57;;;;;;;;;;5036776;28;20878;-73
2021/03/27 00:23:09;;;;;;;27.00;25.20;;;;;;;;;;5036375;28;20902;-73
2021/03/27 00:25:41;;;;;;;27.33;25.43;;;;;;;;;;5036476;28;20453;-73
2021/03/27 00:28:13;;;;;;;27.33;25.53;;;;;;;;;;5036095;28;20772;-73
2021/03/27 00:30:44;;;;;;;26.10;24.40;;;;;;;;;;5035873;28;20436;-73
2021/03/27 00:33:11;;;;;;;28.00;25.80;;;;;;;;;;5035708;28;20447;-74
2021/03/27 00:35:40;;;;;;;28.23;26.23;;;;;;;;;;5035010;28;20542;-73
2021/03/27 00:38:28;;;;;;;27.90;25.90;;;;;;;;;;5036283;28;20821;-73
2021/03/27 00:40:57;;;;;;;28.30;26.17;;;;;;;;;;5034031;28;20481;-73
2021/03/27 00:43:26;;;;;;;27.47;25.70;;;;;;;;;;5033320;28;20429;-73
2021/03/27 00:45:54;;;;;;;27.80;25.80;;;;;;;;;;5036316;28;20504;-73
2021/03/27 00:48:26;;;;;;;27.20;25.40;;;;;;;;;;5037289;28;20470;-73
2021/03/27 00:50:54;;;;;;;27.10;25.20;;;;;;;;;;5037706;28;20907;-73
2021/03/27 00:53:23;;;;;;;28.80;26.60;;;;;;;;;;5038070;28;20464;-73
2021/03/27 00:55:51;;;;;;;26.63;24.83;;;;;;;;;;5037688;28;20444;-73
2021/03/27 00:58:24;;;;;;;28.83;26.83;;;;;;;;;;5037816;28;20451;-73
2021/03/27 01:00:52;;;;;;;27.30;25.37;;;;;;;;;;5037857;28;20465;-74
2021/03/27 01:03:21;;;;;;;26.40;24.60;;;;;;;;;;5037973;28;20421;-73
2021/03/27 01:05:50;;;;;;;26.77;24.90;;;;;;;;;;5037636;28;20451;-73
2021/03/27 01:08:18;;;;;;;26.93;25.03;;;;;;;;;;5037229;28;20896;-73
2021/03/27 01:10:47;;;;;;;26.73;24.93;;;;;;;;;;5037011;28;20822;-73
2021/03/27 01:13:16;;;;;;;26.27;24.47;;;;;;;;;;5037430;28;20444;-73
2021/03/27 01:15:46;;;;;;;26.90;24.97;;;;;;;;;;5037381;28;20413;-73
2021/03/27 01:18:15;;;;;;;27.50;25.50;;;;;;;;;;5036906;28;20485;-73
2021/03/27 01:20:46;;;;;;;27.70;25.80;;;;;;;;;;5036835;28;20529;-73
2021/03/27 01:23:13;;;;;;;27.40;25.57;;;;;;;;;;5036901;28;20421;-73
2021/03/27 01:25:40;;;;;;;26.37;24.43;;;;;;;;;;5037461;28;20499;-74
2021/03/27 01:28:08;;;;;;;25.67;23.97;;;;;;;;;;5036833;28;20450;-73
2021/03/27 01:30:37;;;;;;;26.60;24.80;;;;;;;;;;5036739;28;20464;-73
2021/03/27 01:33:10;;;;;;;24.63;22.93;;;;;;;;;;5036717;28;20446;-73
2021/03/27 01:35:38;;;;;;;25.90;24.10;;;;;;;;;;5036802;28;20473;-73
2021/03/27 01:38:09;;;;;;;25.87;24.07;;;;;;;;;;5036979;28;20439;-72
2021/03/27 01:40:39;;;;;;;23.50;22.10;;;;;;;;;;5036758;28;20501;-72
2021/03/27 01:43:14;;;;;;;26.83;25.03;;;;;;;;;;5036531;28;20417;-73
2021/03/27 01:46:02;;;;;;;26.77;24.97;;;;;;;;;;5036512;28;20416;-73
2021/03/27 01:48:32;;;;;;;26.53;24.53;;;;;;;;;;5036602;28;20449;-73
2021/03/27 01:51:02;;;;;;;23.77;22.10;;;;;;;;;;5036469;28;20398;-73
2021/03/27 01:53:34;;;;;;;25.87;24.23;;;;;;;;;;5036271;28;20903;-73
2021/03/27 01:56:13;;;;;;;22.63;20.57;;;;;;;;;;5036608;28;20416;-73
2021/03/27 01:58:44;;;;;;;25.77;23.83;;;;;;;;;;5036520;28;20421;-73
2021/03/27 02:01:14;;;;;;;25.03;23.33;;;;;;;;;;5036756;28;20472;-73
2021/03/27 02:03:46;;;;;;;24.70;23.00;;;;;;;;;;5037068;28;20436;-73
2021/03/27 02:06:17;;;;;;;22.40;20.90;;;;;;;;;;5036689;28;20417;-72
2021/03/27 02:08:52;;;;;;;24.73;23.13;;;;;;;;;;5036490;28;20433;-73
2021/03/27 02:11:23;;;;;;;39.23;37.03;;;;;;;;;;5035984;28;20514;-73
2021/03/27 02:13:53;;;;;;;40.93;38.73;;;;;;;;;;5036503;28;20430;-73
2021/03/27 02:16:25;;;;;;;36.13;34.13;;;;;;;;;;5036385;28;20413;-73
2021/03/27 02:19:00;;;;;;;37.47;35.37;;;;;;;;;;5036486;28;20232;-73
2021/03/27 02:21:41;;;;;;;42.33;40.00;;;;;;;;;;5036674;28;20409;-73
2021/03/27 02:24:20;;;;;;;44.53;41.90;;;;;;;;;;5034033;28;20475;-73
2021/03/27 02:27:03;;;;;;;44.03;41.63;;;;;;;;;;5037146;28;20421;-73
2021/03/27 02:29:48;;;;;;;46.73;44.23;;;;;;;;;;5041503;28;20421;-73
2021/03/27 02:32:17;;;;;;;40.90;38.70;;;;;;;;;;5041274;28;20490;-73
2021/03/27 02:34:45;;;;;;;41.30;39.13;;;;;;;;;;5040360;28;20479;-73
2021/03/27 02:37:26;;;;;;;41.70;39.60;;;;;;;;;;5041169;28;20459;-73
2021/03/27 02:39:58;;;;;;;33.20;31.50;;;;;;;;;;5041366;28;20556;-73
2021/03/27 02:42:36;;;;;;;30.42;28.75;;;;;;;;;;5038035;28;20424;-73
2021/03/27 02:45:09;;;;;;;29.85;28.15;;;;;;;;;;5039619;28;20534;-73
2021/03/27 02:47:41;;;;;;;28.13;26.05;;;;;;;;;;5040078;28;20592;-73
2021/03/27 02:50:14;;;;;;;24.53;23.10;;;;;;;;;;5036933;28;20203;-74
2021/03/27 02:52:52;;;;;;;25.08;23.40;;;;;;;;;;5036349;28;20500;-73
2021/03/27 02:55:24;;;;;;;24.73;23.23;;;;;;;;;;5036941;28;20195;-73
2021/03/27 02:57:55;;;;;;;24.37;22.93;;;;;;;;;;5036267;28;20250;-73
2021/03/27 03:00:26;;;;;;;24.58;23.05;;;;;;;;;;5035908;28;20461;-73
2021/03/27 03:02:58;;;;;;;29.10;27.27;;;;;;;;;;5036536;28;20199;-73
2021/03/27 03:05:29;;;;;;;29.75;27.90;;;;;;;;;;5036325;28;20503;-74
2021/03/27 03:08:05;;;;;;;26.25;24.67;;;;;;;;;;5035410;28;20540;-73
2021/03/27 03:10:34;;;;;;;23.57;22.17;;;;;;;;;;5034503;28;20206;-73
2021/03/27 03:13:04;;;;;;;23.10;21.70;;;;;;;;;;5035438;28;20497;-72
2021/03/27 03:15:36;;;;;;;27.63;25.93;;;;;;;;;;5035597;28;20195;-73
2021/03/27 03:18:08;;;;;;;28.70;27.10;;;;;;;;;;5035924;28;20501;-72
2021/03/27 03:20:39;;;;;;;28.83;27.13;;;;;;;;;;5035506;28;20221;-73
2021/03/27 03:23:08;;;;;;;28.17;26.50;;;;;;;;;;5035156;28;20202;-72
2021/03/27 03:25:36;;;;;;;23.60;22.20;;;;;;;;;;5035118;28;20192;-72
2021/03/27 03:28:18;;;;;;;25.00;23.50;;;;;;;;;;5035635;28;20552;-73
2021/03/27 03:30:51;;;;;;;26.40;24.70;;;;;;;;;;5032116;28;20470;-73
2021/03/27 03:33:23;;;;;;;24.00;22.60;;;;;;;;;;5035103;28;20196;-73
2021/03/27 03:35:53;;;;;;;22.77;21.42;;;;;;;;;;5035080;28;20358;-72
2021/03/27 03:38:25;;;;;;;25.00;23.40;;;;;;;;;;5034932;28;20257;-72
2021/03/27 03:41:01;;;;;;;22.75;21.42;;;;;;;;;;5035978;28;20287;-72
2021/03/27 03:43:31;;;;;;;24.75;23.25;;;;;;;;;;5035793;28;20218;-73
2021/03/27 03:46:16;;;;;;;25.73;24.02;;;;;;;;;;5034943;28;20188;-73
2021/03/27 03:48:55;;;;;;;26.90;25.10;;;;;;;;;;5034463;28;20191;-73
2021/03/27 03:51:28;;;;;;;23.98;22.58;;;;;;;;;;5034671;28;20245;-73
2021/03/27 03:54:00;;;;;;;23.73;22.33;;;;;;;;;;5034681;28;20192;-73
2021/03/27 03:56:31;;;;;;;24.55;22.95;;;;;;;;;;5035046;28;20187;-72
2021/03/27 03:59:06;;;;;;;24.33;22.83;;;;;;;;;;5034576;28;20535;-73
2021/03/27 04:01:41;;;;;;;25.45;23.85;;;;;;;;;;5033004;28;20211;-73
2021/03/27 04:04:14;;;;;;;26.42;24.73;;;;;;;;;;5035005;28;20575;-73
2021/03/27 04:06:42;;;;;;;26.73;24.83;;;;;;;;;;5033229;28;20206;-73
2021/03/27 04:09:12;;;;;;;25.50;23.83;;;;;;;;;;5034906;28;20192;-73
2021/03/27 04:11:47;;;;;;;25.35;23.65;;;;;;;;;;5035903;28;20278;-73
2021/03/27 04:14:18;;;;;;;28.58;26.48;;;;;;;;;;5035273;28;20678;-72
2021/03/27 04:16:47;;;;;;;25.08;23.48;;;;;;;;;;5034504;28;20706;-73
2021/03/27 04:19:18;;;;;;;26.08;24.27;;;;;;;;;;5033955;28;20635;-73
2021/03/27 04:21:53;;;;;;;27.92;25.70;;;;;;;;;;5034294;28;20316;-72
2021/03/27 04:24:36;;;;;;;26.52;24.75;;;;;;;;;;5034004;28;20526;-73
2021/03/27 04:27:17;;;;;;;28.45;26.27;;;;;;;;;;5033720;28;20217;-72
2021/03/27 04:29:48;;;;;;;28.65;26.35;;;;;;;;;;5033816;28;20556;-73
2021/03/27 04:32:31;;;;;;;30.73;28.02;;;;;;;;;;5033642;28;20191;-73
2021/03/27 04:35:09;;;;;;;28.05;25.85;;;;;;;;;;5034118;28;20190;-73
2021/03/27 04:37:40;;;;;;;33.83;30.85;;;;;;;;;;5033587;28;20244;-73
2021/03/27 04:40:10;;;;;;;34.35;31.13;;;;;;;;;;5033771;28;20258;-74
2021/03/27 04:42:43;;;;;;;33.05;30.50;;;;;;;;;;5032671;28;20200;-73
2021/03/27 04:45:14;;;;;;;29.83;27.13;;;;;;;;;;5033568;28;20194;-73
2021/03/27 04:47:45;;;;;;;31.10;28.40;;;;;;;;;;5033475;28;20225;-73
2021/03/27 04:50:21;;;;;;;32.22;29.63;;;;;;;;;;5033953;28;20552;-73
2021/03/27 04:52:54;;;;;;;33.53;30.60;;;;;;;;;;5033939;28;20199;-74
2021/03/27 04:55:26;;;;;;;35.10;31.98;;;;;;;;;;5033525;28;20253;-73
2021/03/27 04:58:04;;;;;;;28.02;25.98;;;;;;;;;;5033705;28;20187;-74
2021/03/27 05:00:40;;;;;;;29.92;27.58;;;;;;;;;;5033750;28;20226;-73
2021/03/27 05:03:12;;;;;;;33.65;30.65;;;;;;;;;;5033805;28;20202;-73
2021/03/27 05:05:45;;;;;;;28.27;26.17;;;;;;;;;;5033339;28;20192;-73
2021/03/27 05:08:14;;;;;;;36.13;33.13;;;;;;;;;;5033597;28;20314;-73
2021/03/27 05:10:44;;;;;;;31.77;29.27;;;;;;;;;;5033174;28;20230;-73
2021/03/27 05:13:15;;;;;;;34.50;31.60;;;;;;;;;;5032179;28;20653;-73
2021/03/27 05:15:48;;;;;;;35.05;31.98;;;;;;;;;;5033166;28;20198;-73
2021/03/27 05:18:21;;;;;;;37.17;33.75;;;;;;;;;;5032925;28;20227;-73
2021/03/27 05:20:53;;;;;;;34.53;31.13;;;;;;;;;;5032166;28;20223;-73
2021/03/27 05:23:29;;;;;;;30.08;27.60;;;;;;;;;;5033022;28;20695;-73
2021/03/27 05:26:06;;;;;;;28.92;26.77;;;;;;;;;;5033324;28;20192;-72
2021/03/27 05:29:06;;;;;;;32.83;30.05;;;;;;;;;;5033377;28;20328;-73
2021/03/27 05:31:37;;;;;;;32.35;29.60;;;;;;;;;;4936824;29;20209;-73
2021/03/27 05:34:09;;;;;;;28.58;26.38;;;;;;;;;;4955601;28;20645;-73
2021/03/27 05:36:53;;;;;;;28.70;26.55;;;;;;;;;;4956573;29;20209;-72
2021/03/27 05:39:36;;;;;;;30.00;27.75;;;;;;;;;;4941338;29;20203;-72
2021/03/27 05:42:21;;;;;;;28.80;26.70;;;;;;;;;;4940499;29;20739;-72
2021/03/27 05:45:04;;;;;;;29.75;27.20;;;;;;;;;;4947521;29;20209;-72
2021/03/27 05:47:51;;;;;;;31.10;28.48;;;;;;;;;;4956166;29;20233;-73
2021/03/27 05:50:37;;;;;;;27.55;25.20;;;;;;;;;;4956492;29;20209;-72
2021/03/27 05:53:28;;;;;;;29.08;26.75;;;;;;;;;;4956245;29;20194;-72
2021/03/27 05:56:02;;;;;;;28.88;26.52;;;;;;;;;;4942309;29;20209;-72
2021/03/27 05:58:42;;;;;;;24.40;22.67;;;;;;;;;;4954673;29;20235;-71
2021/03/27 06:01:19;;;;;;;30.10;27.40;;;;;;;;;;4955594;29;20586;-72
2021/03/27 06:03:58;;;;;;;26.30;24.50;;;;;;;;;;5036323;28;20195;-71
2021/03/27 06:06:42;;;;;;;29.95;27.45;;;;;;;;;;5036027;28;20629;-72
2021/03/27 06:09:20;;;;;;;29.63;26.95;;;;;;;;;;5036049;28;20199;-71
2021/03/27 06:11:53;;;;;;;28.15;26.02;;;;;;;;;;5036247;28;20605;-72
2021/03/27 06:14:38;;;;;;;30.40;27.83;;;;;;;;;;5036870;28;20646;-72
2021/03/27 06:17:19;;;;;;;32.13;28.95;;;;;;;;;;5036266;28;20199;-71
2021/03/27 06:19:58;;;;;;;25.65;23.95;;;;;;;;;;5033309;28;20302;-72
2021/03/27 06:22:36;;;;;;;33.53;30.38;;;;;;;;;;5035826;28;20646;-72
2021/03/27 06:25:20;;;;;;;28.02;25.65;;;;;;;;;;5036020;28;20217;-71
2021/03/27 06:28:14;;;;;;;30.85;28.45;;;;;;;;;;5035475;28;20222;-72
2021/03/27 06:30:58;;;;;;;32.05;28.65;;;;;;;;;;4955405;28;20206;-71
2021/03/27 06:33:42;;;;;;;35.55;32.60;;;;;;;;;;4955604;29;20210;-71
2021/03/27 06:36:22;;;;;;;34.30;31.45;;;;;;;;;;4955499;29;20274;-70
2021/03/27 06:39:07;;;;;;;33.90;30.83;;;;;;;;;;4955421;29;20195;-71
2021/03/27 06:42:00;;;;;;;34.45;30.13;;;;;;;;;;4956265;29;20614;-71
2021/03/27 06:44:49;;;;;;;29.05;26.75;;;;;;;;;;4897800;29;20215;-71
2021/03/27 06:47:30;;;;;;;30.58;27.98;;;;;;;;;;4898376;29;20258;-71
2021/03/27 06:50:15;;;;;;;28.17;25.98;;;;;;;;;;4898845;29;20281;-71
2021/03/27 06:52:55;;;;;;;28.02;25.75;;;;;;;;;;4871305;29;20220;-71
2021/03/27 06:55:35;;;;;;;27.88;25.70;;;;;;;;;;4882884;29;20208;-71
2021/03/27 06:58:19;;;;;;;30.98;28.17;;;;;;;;;;4898571;29;20576;-70
2021/03/27 07:00:49;;;;;;;25.58;23.67;;;;;;;;;;4870865;29;20233;-71
2021/03/27 07:03:34;;;;;;;29.60;26.80;;;;;;;;;;4898520;29;20195;-71
2021/03/27 07:06:16;;;;;;;26.20;24.38;;;;;;;;;;4925672;28;20209;-71
2021/03/27 07:08:47;;;;;;;28.98;26.50;;;;;;;;;;4958243;28;20197;-71
2021/03/27 07:11:21;;;;;;;26.95;24.55;;;;;;;;;;4974508;28;20249;-71
2021/03/27 07:14:12;;;;;;;27.95;25.42;;;;;;;;;;4974511;28;20256;-71
2021/03/27 07:16:43;;;;;;;25.05;23.00;;;;;;;;;;4897949;29;20214;-72
2021/03/27 07:19:28;;;;;;;26.05;22.90;;;;;;;;;;4903454;29;20240;-71
2021/03/27 07:22:16;;;;;;;28.05;25.88;;;;;;;;;;4954735;29;20216;-72
2021/03/27 07:24:50;;;;;;;27.25;25.27;;;;;;;;;;4954979;29;20644;-72
2021/03/27 07:27:37;;;;;;;27.90;25.38;;;;;;;;;;4954804;29;20210;-71
2021/03/27 07:30:12;;;;;;;22.80;20.90;;;;;;;;;;4938702;29;20213;-71
2021/03/27 07:32:49;;;;;;;26.48;24.38;;;;;;;;;;4954851;29;20199;-71
2021/03/27 07:35:29;;;;;;;24.58;22.67;;;;;;;;;;4955328;29;20629;-71
2021/03/27 07:38:09;;;;;;;23.63;21.92;;;;;;;;;;4954812;29;20191;-71
2021/03/27 07:40:42;;;;;;;23.35;21.55;;;;;;;;;;4954740;29;20704;-72
2021/03/27 07:43:28;;;;;;;24.10;22.10;;;;;;;;;;4954898;29;20557;-71
2021/03/27 07:46:11;;;;;;;20.80;19.60;;;;;;;;;;4954682;29;20211;-70
2021/03/27 07:48:56;;;;;;;24.95;22.88;;;;;;;;;;4954556;29;20198;-71
2021/03/27 07:51:30;;;;;;;26.77;24.48;;;;;;;;;;4954756;29;20204;-71
2021/03/27 07:54:07;;;;;;;22.88;21.42;;;;;;;;;;5021927;28;20207;-71
2021/03/27 07:56:55;;;;;;;23.60;21.77;;;;;;;;;;5033162;28;20688;-73
2021/03/27 07:59:39;;;;;;;21.10;19.60;;;;;;;;;;5034498;28;20535;-71
2021/03/27 08:02:33;;;;;;;20.85;19.60;;;;;;;;;;5034586;28;20200;-71
2021/03/27 08:05:10;;;;;;;22.80;21.08;;;;;;;;;;4954353;29;20206;-71
2021/03/27 08:08:12;;;;;;;23.98;21.33;;;;;;;;;;4954126;29;20301;-71
2021/03/27 08:10:46;;;;;;;22.95;21.45;;;;;;;;;;4953452;29;20198;-71
2021/03/27 08:13:26;;;;;;;23.38;21.88;;;;;;;;;;4953676;29;20188;-71
2021/03/27 08:16:08;;;;;;;22.98;21.48;;;;;;;;;;4954434;29;20210;-71
2021/03/27 08:18:48;;;;;;;23.65;22.02;;;;;;;;;;4955700;29;20324;-75
2021/03/27 08:21:17;;;;;;;25.23;23.35;;;;;;;;;;4954310;29;20230;-71
2021/03/27 08:24:11;;;;;;;24.20;22.55;;;;;;;;;;4953977;28;20210;-70
2021/03/27 08:27:04;;;;;;;24.90;22.70;;;;;;;;;;4896611;29;20213;-71
2021/03/27 08:29:46;;;;;;;25.00;23.17;;;;;;;;;;4896772;29;20461;-71
2021/03/27 08:32:29;;;;;;;23.67;22.23;;;;;;;;;;4896836;29;20190;-73
2021/03/27 08:35:07;;;;;;;26.30;24.08;;;;;;;;;;4895208;29;20208;-73
2021/03/27 08:37:40;;;;;;;22.08;20.55;;;;;;;;;;4896996;29;20255;-74
2021/03/27 08:40:30;;;;;;;26.70;24.85;;;;;;;;;;4900174;29;20217;-76
2021/03/27 08:43:16;;;;;;;41.83;38.88;;;;;;;;;;4999201;28;20204;-77
2021/03/27 08:45:56;;;;;;;34.22;32.15;;;;;;;;;;5002550;28;20192;-76
2021/03/27 08:48:32;;;;;;;32.88;30.80;;;;;;;;;;4996318;28;20194;-76
2021/03/27 08:51:17;;;;;;;34.10;31.80;;;;;;;;;;4994053;28;20192;-74
2021/03/27 08:54:03;;;;;;;31.58;29.02;;;;;;;;;;4996642;28;20203;-80
2021/03/27 08:56:48;;;;;;;32.40;30.15;;;;;;;;;;4996014;28;20289;-77
2021/03/27 08:59:32;;;;;;;31.63;29.70;;;;;;;;;;4995189;28;20202;-75
2021/03/27 09:02:02;;;;;;;32.20;29.90;;;;;;;;;;5012118;28;20287;-75
2021/03/27 09:04:43;;;;;;;33.72;31.73;;;;;;;;;;5032971;28;20225;-75
2021/03/27 09:07:17;;;;;;;32.85;31.05;;;;;;;;;;5017919;28;20256;-75
2021/03/27 09:09:59;;;;;;;30.05;28.30;;;;;;;;;;5037344;28;20221;-75
2021/03/27 09:12:36;;;;;;;31.20;29.48;;;;;;;;;;5033465;28;20201;-75
2021/03/27 09:15:14;;;;;;;33.28;31.65;;;;;;;;;;5036968;28;20208;-75
2021/03/27 09:18:03;;;;;;;31.25;29.65;;;;;;;;;;5039178;28;20228;-75
2021/03/27 09:20:38;;;;;;;33.25;31.45;;;;;;;;;;5039359;28;20277;-75
2021/03/27 09:23:17;;;;;;;33.60;31.70;;;;;;;;;;5036756;28;20201;-71
2021/03/27 09:26:17;;;;;;;35.65;33.95;;;;;;;;;;5038684;28;20190;-82
2021/03/27 09:28:53;;;;;;;30.13;28.63;;;;;;;;;;5037566;28;20193;-73
2021/03/27 09:31:38;;;;;;;32.22;30.52;;;;;;;;;;5035804;28;20263;-72
2021/03/27 09:34:07;;;;;;;30.92;29.30;;;;;;;;;;5024117;28;20201;-72
2021/03/27 09:36:37;;;;;;;30.15;28.45;;;;;;;;;;5036228;28;20551;-71
2021/03/27 09:39:11;;;;;;;29.60;28.00;;;;;;;;;;5037352;28;20198;-72
2021/03/27 09:41:57;;;;;;;28.58;26.83;;;;;;;;;;5037401;28;20229;-72
2021/03/27 09:44:36;;;;;;;27.17;25.77;;;;;;;;;;5037366;28;20194;-71
2021/03/27 09:47:07;;;;;;;27.27;25.42;;;;;;;;;;5036973;28;20224;-72
2021/03/27 09:49:41;;;;;;;29.15;27.33;;;;;;;;;;5036722;28;20529;-72
2021/03/27 09:52:26;;;;;;;27.48;25.98;;;;;;;;;;5036745;28;20638;-72
2021/03/27 09:55:01;;;;;;;25.63;23.77;;;;;;;;;;5037379;28;20197;-72
2021/03/27 09:57:29;;;;;;;23.67;22.30;;;;;;;;;;5036687;28;20195;-72
2021/03/27 10:00:08;;;;;;;24.45;23.00;;;;;;;;;;5036736;28;20213;-72
2021/03/27 10:02:38;;;;;;;24.40;22.92;;;;;;;;;;5036626;28;20239;-72
2021/03/27 10:05:17;;;;;;;24.90;23.10;;;;;;;;;;5037002;28;20194;-72
2021/03/27 10:07:47;;;;;;;25.15;23.63;;;;;;;;;;5036601;28;20193;-72
2021/03/27 10:10:32;;;;;;;22.70;21.02;;;;;;;;;;5035408;28;20236;-72
2021/03/27 10:13:02;;;;;;;21.50;20.40;;;;;;;;;;5036224;28;20674;-74
2021/03/27 10:15:35;;;;;;;20.10;18.90;;;;;;;;;;5036251;28;20602;-73
2021/03/27 10:18:06;;;;;;;21.40;19.95;;;;;;;;;;5037460;28;20234;-73
2021/03/27 10:20:38;;;;;;;21.17;19.60;;;;;;;;;;5036345;28;20218;-73
2021/03/27 10:23:07;;;;;;;20.55;19.33;;;;;;;;;;5036041;28;20629;-73
2021/03/27 10:25:35;;;;;;;24.10;22.25;;;;;;;;;;5035851;28;20606;-72
2021/03/27 10:28:14;;;;;;;22.08;20.48;;;;;;;;;;5035922;28;20210;-72
2021/03/27 10:30:44;;;;;;;22.00;20.63;;;;;;;;;;5036221;28;20194;-72
2021/03/27 10:33:17;;;;;;;21.10;19.83;;;;;;;;;;5035728;28;20205;-72
2021/03/27 10:36:05;;;;;;;22.65;21.35;;;;;;;;;;5036247;28;20228;-71
2021/03/27 10:38:38;;;;;;;23.20;21.90;;;;;;;;;;5036829;28;20198;-72
2021/03/27 10:41:10;;;;;;;23.50;22.00;;;;;;;;;;5034947;28;20217;-72
2021/03/27 10:43:46;;;;;;;22.33;20.92;;;;;;;;;;5036593;28;20195;-72
2021/03/27 10:46:19;;;;;;;22.33;20.92;;;;;;;;;;5035708;28;20226;-72
2021/03/27 10:49:00;;;;;;;22.88;21.50;;;;;;;;;;5035407;28;20287;-71
2021/03/27 10:51:36;;;;;;;24.73;23.02;;;;;;;;;;5035616;28;20196;-72
2021/03/27 10:54:22;;;;;;;24.70;22.90;;;;;;;;;;5034453;28;20564;-72
2021/03/27 10:57:00;;;;;;;25.10;23.02;;;;;;;;;;5035194;28;20192;-72
2021/03/27 10:59:33;;;;;;;24.35;22.85;;;;;;;;;;5035792;28;20204;-72
2021/03/27 11:02:11;;;;;;;25.17;23.52;;;;;;;;;;5035587;28;20218;-72
2021/03/27 11:04:56;;;;;;;26.17;24.23;;;;;;;;;;5035382;28;20189;-72
2021/03/27 11:07:30;;;;;;;24.13;22.50;;;;;;;;;;5035512;28;20193;-72
2021/03/27 11:10:08;;;;;;;22.30;21.00;;;;;;;;;;5035505;28;20191;-71
2021/03/27 11:12:41;;;;;;;25.65;23.58;;;;;;;;;;5034796;28;20205;-74
2021/03/27 11:15:31;;;;;;;25.23;23.38;;;;;;;;;;5036463;28;20252;-73
2021/03/27 11:18:12;;;;;;;22.70;21.27;;;;;;;;;;5034937;28;20231;-74
2021/03/27 11:20:46;;;;;;;21.75;20.55;;;;;;;;;;5035531;28;20221;-71
2021/03/27 11:23:38;;;;;;;20.08;18.98;;;;;;;;;;5035242;28;20252;-72
2021/03/27 11:26:20;;;;;;;20.65;19.55;;;;;;;;;;5034573;28;20603;-71
2021/03/27 11:28:48;;;;;;;20.50;18.98;;;;;;;;;;5032935;28;20202;-71
2021/03/27 11:31:24;;;;;;;21.45;20.20;;;;;;;;;;5034820;28;20256;-71
2021/03/27 11:34:01;;;;;;;21.05;19.75;;;;;;;;;;5035544;28;20205;-72
2021/03/27 11:36:32;;;;;;;20.38;19.08;;;;;;;;;;5034709;28;20647;-71
2021/03/27 11:39:01;;;;;;;21.67;20.33;;;;;;;;;;5035315;28;20198;-74
2021/03/27 11:41:33;;;;;;;21.17;19.92;;;;;;;;;;5034416;28;20700;-74
2021/03/27 11:44:08;;;;;;;21.52;19.95;;;;;;;;;;5034820;28;20218;-71
2021/03/27 11:46:39;;;;;;;23.77;22.27;;;;;;;;;;5032918;28;20264;-70
2021/03/27 11:49:09;;;;;;;22.58;21.00;;;;;;;;;;5034784;28;20190;-72
2021/03/27 11:51:39;;;;;;;21.30;19.90;;;;;;;;;;5034429;28;20268;-72
2021/03/27 11:54:25;;;;;;;20.13;18.92;;;;;;;;;;5034024;28;20191;-71
2021/03/27 11:56:53;;;;;;;22.17;20.55;;;;;;;;;;5021702;28;20290;-71
2021/03/27 12:00:47;;;;;;;22.58;20.98;;;;;;;;;;5034271;28;20197;-71
2021/03/27 12:02:46;;;;;;;21.08;19.88;;;;;;;;;;5034782;28;20249;-72
2021/03/27 12:05:17;;;;;;;19.98;18.88;;;;;;;;;;5035133;28;20197;-72
2021/03/27 12:07:50;;;;;;;20.77;19.63;;;;;;;;;;5034961;28;20198;-72
2021/03/27 12:10:29;;;;;;;20.80;19.52;;;;;;;;;;5033949;28;20648;-72
2021/03/27 12:13:01;;;;;;;20.92;19.73;;;;;;;;;;5034827;28;20646;-71
2021/03/27 12:15:33;;;;;;;21.05;19.95;;;;;;;;;;5034548;28;20202;-71
2021/03/27 12:18:05;;;;;;;20.38;19.08;;;;;;;;;;5034457;28;20227;-72
2021/03/27 12:20:37;;;;;;;20.45;19.20;;;;;;;;;;5034265;28;20708;-72
2021/03/27 12:23:10;;;;;;;20.45;19.35;;;;;;;;;;5034536;28;20210;-71
2021/03/27 12:25:46;;;;;;;21.27;20.10;;;;;;;;;;5034124;28;20196;-71
2021/03/27 12:28:21;;;;;;;21.38;19.83;;;;;;;;;;5033913;28;20196;-72
2021/03/27 12:30:49;;;;;;;20.65;19.35;;;;;;;;;;5032971;28;20198;-71
2021/03/27 12:33:19;;;;;;;21.30;20.10;;;;;;;;;;5033953;28;20191;-72
2021/03/27 12:35:51;;;;;;;20.73;19.33;;;;;;;;;;5034069;28;20189;-72
2021/03/27 12:38:29;;;;;;;20.52;19.15;;;;;;;;;;5034110;28;20241;-72
2021/03/27 12:40:59;;;;;;;20.85;19.55;;;;;;;;;;5034771;28;20262;-73
2021/03/27 12:43:29;;;;;;;21.60;20.30;;;;;;;;;;5032115;28;20191;-73
2021/03/27 12:46:13;;;;;;;20.90;19.80;;;;;;;;;;5034636;28;20228;-73
2021/03/27 12:48:43;;;;;;;22.50;21.00;;;;;;;;;;5033070;28;20203;-71
2021/03/27 12:51:16;;;;;;;21.48;20.42;;;;;;;;;;5033070;28;20201;-71
2021/03/27 12:54:03;;;;;;;21.58;20.25;;;;;;;;;;5035280;28;20194;-73
2021/03/27 12:56:35;;;;;;;24.20;22.75;;;;;;;;;;5035520;28;20191;-73
2021/03/27 12:59:07;;;;;;;25.52;24.42;;;;;;;;;;5035166;28;20193;-73
2021/03/27 13:01:45;;;;;;;24.52;23.33;;;;;;;;;;5033836;28;20221;-75
2021/03/27 13:04:32;;;;;;;23.40;22.30;;;;;;;;;;5034007;28;20647;-74
2021/03/27 13:07:10;;;;;;;24.52;23.23;;;;;;;;;;5034652;28;20190;-75
2021/03/27 13:09:55;;;;;;;24.33;22.55;;;;;;;;;;5036191;28;20194;-75
2021/03/27 13:12:24;;;;;;;23.08;21.98;;;;;;;;;;5034913;28;20228;-71
2021/03/27 13:15:09;;;;;;;22.23;21.23;;;;;;;;;;5034937;28;20202;-72
2021/03/27 13:17:38;;;;;;;24.25;22.85;;;;;;;;;;5032358;28;20642;-71
2021/03/27 13:20:11;;;;;;;22.10;21.00;;;;;;;;;;5033855;28;20610;-72
2021/03/27 13:22:41;;;;;;;23.05;21.85;;;;;;;;;;5032499;28;20194;-72
2021/03/27 13:25:23;;;;;;;23.50;22.27;;;;;;;;;;5032388;28;20635;-72
2021/03/27 13:27:53;;;;;;;22.42;21.40;;;;;;;;;;5034465;28;20206;-71
2021/03/27 13:30:27;;;;;;;22.40;21.20;;;;;;;;;;5034472;28;20187;-72
2021/03/27 13:33:14;;;;;;;22.83;21.52;;;;;;;;;;5032960;28;20213;-71
2021/03/27 13:35:59;;;;;;;21.20;20.20;;;;;;;;;;5034207;28;20192;-71
2021/03/27 13:38:29;;;;;;;21.67;20.13;;;;;;;;;;5033738;28;20284;-72
2021/03/27 13:40:56;;;;;;;22.02;20.50;;;;;;;;;;5033734;28;20226;-71
2021/03/27 13:43:27;;;;;;;21.98;20.52;;;;;;;;;;5033971;28;20213;-71
2021/03/27 13:45:57;;;;;;;20.92;19.77;;;;;;;;;;5033431;28;20305;-71
2021/03/27 13:48:43;;;;;;;21.05;19.95;;;;;;;;;;5033268;28;20216;-72
2021/03/27 13:51:15;;;;;;;22.02;20.73;;;;;;;;;;5033370;28;20213;-72
2021/03/27 13:53:59;;;;;;;22.38;20.35;;;;;;;;;;5034315;28;20224;-72
2021/03/27 13:56:49;;;;;;;20.80;19.60;;;;;;;;;;5037644;28;20196;-72
2021/03/27 13:59:38;;;;;;;21.10;19.85;;;;;;;;;;5036830;28;20202;-72
2021/03/27 14:02:26;;;;;;;20.90;19.60;;;;;;;;;;5037431;28;20223;-71
2021/03/27 14:04:56;;;;;;;20.63;19.23;;;;;;;;;;5031309;28;20211;-71
2021/03/27 14:07:32;;;;;;;20.38;18.98;;;;;;;;;;5037150;28;20193;-71
2021/03/27 14:10:01;;;;;;;19.95;18.55;;;;;;;;;;5037865;28;20290;-73
2021/03/27 14:12:30;;;;;;;19.00;17.85;;;;;;;;;;5037854;28;20197;-74
2021/03/27 14:15:15;;;;;;;19.92;18.58;;;;;;;;;;5036782;28;20191;-73
2021/03/27 14:17:49;;;;;;;28.58;27.27;;;;;;;;;;5035247;28;20234;-71
2021/03/27 14:20:20;;;;;;;23.45;22.17;;;;;;;;;;5036995;28;20225;-71
2021/03/27 14:22:56;;;;;;;24.33;22.83;;;;;;;;;;5055467;28;20558;-71
2021/03/27 14:25:32;;;;;;;21.58;20.58;;;;;;;;;;5053925;28;20216;-72
2021/03/27 14:28:01;;;;;;;22.00;20.80;;;;;;;;;;5055350;28;20185;-71
2021/03/27 14:30:41;;;;;;;21.40;20.20;;;;;;;;;;5055760;28;20194;-72
2021/03/27 14:33:14;;;;;;;21.15;19.90;;;;;;;;;;5052714;28;20646;-71
2021/03/27 14:35:57;;;;;;;20.80;19.42;;;;;;;;;;5056971;28;20241;-71
2021/03/27 14:38:31;;;;;;;20.45;19.33;;;;;;;;;;5056075;28;20216;-71
2021/03/27 14:41:04;;;;;;;21.23;19.77;;;;;;;;;;5055843;28;20292;-71
2021/03/27 14:43:53;;;;;;;19.33;18.23;;;;;;;;;;5057193;28;20202;-71
2021/03/27 14:46:28;;;;;;;19.40;18.40;;;;;;;;;;5056092;28;20336;-71
2021/03/27 14:49:05;;;;;;;20.08;18.92;;;;;;;;;;5057726;28;20662;-71
2021/03/27 14:51:42;;;;;;;20.80;19.58;;;;;;;;;;5055539;28;20196;-73
2021/03/27 14:54:37;;;;;;;24.10;21.48;;;;;;;;;;5054983;28;20206;-71
2021/03/27 14:57:08;;;;;;;21.52;20.20;;;;;;;;;;4974272;28;20206;-70
2021/03/27 14:59:37;;;;;;;22.63;21.30;;;;;;;;;;4974222;28;20651;-71
2021/03/27 15:02:12;;;;;;;21.60;20.30;;;;;;;;;;4974318;28;20220;-72
2021/03/27 15:04:41;;;;;;;23.35;21.95;;;;;;;;;;4974976;28;20198;-72
2021/03/27 15:07:13;;;;;;;23.00;21.33;;;;;;;;;;4974492;28;20208;-72